Tiempo atmosférico en la estación meteorológica de Zafra, Badajoz (433 m.)



Fecha
DESCASC
Temp. máxima en grados centígrados (hora)
DESCASC
Temp. mínima en grados centígrados (hora)
DESCASC
Temp. media en grados centígrados
DESCASC
Racha de viento máxima en m/sg (hora)
DESCASC
Velocidad máxima media en intervalos de 10 minutos(hora)
DESCASC
Precipitaciones diarias en mm
DESCASC
Precipitaciones de 00:00 a 06:00 en mm
DESCASC
Precipitaciones de 06:00 a 12:00 en mm
DESCASC
Precipitaciones de 12:00 a 18:00 en mm
DESCASC
Precipitaciones de 18:00 a 24:00 en mm
DESCASC
28-02-2021 16.8 (15:20) 4.7 (08:30) 10.7 8.33 (11:00) 5.28 (11:50) 0 0 0 0 0
27-02-2021 17.6 (16:20) 3.8 (07:20) 10.7 4.17 (08:20) 3.33 (08:20) 0.2 0 0.2 0 0
26-02-2021 17.7 (15:10) 7.7 (23:59) 12.7 5 (13:20) 3.33 (13:20) 0.4 0 0.4 0 0
25-02-2021 16.3 (15:40) 5.7 (00:00) 11 7.22 (12:50) 4.17 (11:40) 0 0 0 0 0
24-02-2021 17.4 (15:40) 3.8 (00:00) 10.6 12.5 (13:40) 8.61 (12:40) 0 0 0 0 0
23-02-2021 17.1 (15:20) 2.6 (00:00) 9.9 8.33 (12:20) 5 (11:50) 0 0 0 0 0
22-02-2021 15 (16:50) 1.3 (00:00) 8.1 6.67 (00:20) 4.44 (00:50) 0 0 0 0 0
21-02-2021 14 (02:40) 6.6 (00:00) 10.3 20.83 (05:40) 13.89 (05:40) 10 0 9.8 0.2 0
20-02-2021 16.2 (16:20) 8.8 (00:00) 12.5 14.17 (12:20) 8.61 (11:20) 0 0 0 0 0
19-02-2021 19.4 (15:40) 4.3 (00:00) 11.8 8.61 (15:00) 5 (14:40) 0 0 0 0 0
18-02-2021 19.5 (16:20) 4.4 (00:00) 12 6.39 (14:40) 3.33 (15:00) 0 0 0 0 0
17-02-2021 21.9 (15:50) 3.8 (00:00) 12.8 6.11 (13:20) 3.33 (04:50) 0 0 0 0 0
16-02-2021 17.8 (16:20) 5.4 (00:00) 11.6 6.94 (01:20) 5 (01:00) 0 0 0 0 0
15-02-2021 18.9 (15:20) 5 (00:00) 11.9 10.28 (12:20) 6.39 (12:20) 0 0 0 0 0
14-02-2021 20.8 (15:20) 3.4 (00:00) 12.1 6.67 (15:10) 3.89 (14:00) 0 0 0 0 0
13-02-2021 17 (17:00) 3.1 (00:00) 10 5.28 (13:10) 3.89 (11:30) 0.2 0 0.2 0 0
12-02-2021 15.3 (15:20) 5.7 (00:00) 10.5 10.28 (05:50) 6.94 (05:50) 1.2 1.2 0 0 0
11-02-2021 16 (16:00) 11.7 (00:00) 13.8 8.33 (01:50) 4.72 (07:40) 0.4 0.4 0 0 0
10-02-2021 15.2 (16:50) 9.9 (00:00) 12.5 15.28 (02:50) 6.39 (02:20) 9.4 2.4 6.6 0 0.4
09-02-2021 11.8 (14:00) 9.3 (00:00) 10.6 18.61 (12:50) 7.5 (12:40) 22 0 1.4 16.6 4
08-02-2021 13 (14:40) 8.5 (00:00) 10.8 18.33 (02:50) 9.72 (04:30) 10.8 8.8 2 0 0
07-02-2021 9.9 (16:20) 6.5 (00:00) 8.2 13.33 (23:00) 6.67 (13:10) 0.2 0 0 0 0.2
06-02-2021 10.7 (14:20) 8 (00:00) 9.3 9.17 (05:00) 4.17 (07:00) 6 0.2 0 3.2 2.6
05-02-2021 11 (16:20) 8.9 (00:00) 9.9 10 (22:20) 6.39 (21:20) 17.2 3.2 6.8 5.2 2
04-02-2021 13 (12:20) 8.9 (00:00) 10.9 11.39 (12:40) 6.94 (11:50) 8 1.4 0.2 6.4 0
03-02-2021 14.7 (14:30) 10.7 (00:00) 12.7 9.44 (03:30) 6.11 (06:40) 0.2 0 0 0 0.2
02-02-2021 15 (15:50) 8.2 (00:00) 11.6 6.67 (17:50) 4.72 (07:50) 0.4 0 0.4 0 0
01-02-2021 15.9 (15:40) 8.8 (00:00) 12.3 10.28 (03:00) 6.67 (00:10) 0 0 0 0 0

Gráficas

Temp. máximas Temp. mínimas Temp. medias Precipitaciones Rachas de viento máximas Velocidades máximas media en intervalos de 10 minutos

Datos horarios

Fecha y hora oficial Temperatura (ºC) Velocidad del viento (km/h) Dirección del viento Racha (km/h) Dirección de racha Precipitación (mm) Presión (hPa) Tendencia (hPa) Humedad (%)
2021-03-02 23:00:00 8.7 2 Sudeste 4 Sudeste 0 -- -- 93
2021-03-02 22:00:00 9.6 2 Sudeste 3 Sudeste 0 -- -- 92
2021-03-02 21:00:00 10.5 0 Calma 2 Noroeste 0 -- -- 87
2021-03-02 20:00:00 12.3 0 Calma 9 Norte 0 -- -- 83
2021-03-02 19:00:00 14.9 6 Norte 16 Norte 0 -- -- 73
2021-03-02 18:00:00 16.3 7 Noroeste 17 Norte 0 -- -- 67
2021-03-02 17:00:00 17.2 9 Norte 18 Norte 0 -- -- 63
2021-03-02 16:00:00 17.2 10 Noroeste 17 Norte 0 -- -- 63
2021-03-02 15:00:00 16.6 12 Noroeste 18 Noroeste 0 -- -- 67
2021-03-02 14:00:00 17 8 Noroeste 15 Noroeste 0 -- -- 64
2021-03-02 13:00:00 15.9 8 Noroeste 14 Noroeste 0 -- -- 69
2021-03-02 12:00:00 14.8 6 Noroeste 14 Norte 0 -- -- 75
2021-03-02 11:00:00 13.1 6 Noroeste 8 Noroeste 0 -- -- 81
2021-03-02 10:00:00 11 3 Sur 6 Sudeste 0 -- -- 88
2021-03-02 09:00:00 8.5 0 Calma 9 Sur 0 -- -- 96
2021-03-02 08:00:00 7.8 2 Sur 10 Sudeste 0 -- -- 96
2021-03-02 07:00:00 6.5 5 Sudeste 7 Sur 0 -- -- 96
2021-03-02 06:00:00 6.3 4 Sudeste 9 Sudeste 0 -- -- 95
2021-03-02 05:00:00 7.6 6 Sur 9 Sur 0 -- -- 94
2021-03-02 04:00:00 8.4 6 Sur 10 Sudeste 0 -- -- 93
2021-03-02 03:00:00 8.2 7 Sudeste 11 Sur 0 -- -- 94
2021-03-02 02:00:00 7.2 8 Sudeste 10 Sudeste 0 -- -- 93
2021-03-02 01:00:00 7.9 6 Sudeste 9 Sudeste 0 -- -- 93
2021-03-02 00:00:00 8.6 5 Sudeste 8 Sudeste 0 -- -- 93
2021-03-01 23:00:00 8.3 0 Calma 8 Sudeste 0 -- -- 92
2021-03-01 22:00:00 8.5 5 Sudeste 10 Sudeste 0 -- -- 91
2021-03-01 21:00:00 8.7 3 Sudeste 4 Sudeste 0 -- -- 89
2021-03-01 20:00:00 10.9 0 Calma 4 Nordeste 0 -- -- 82
2021-03-01 19:00:00 14.1 2 Nordeste 15 Este 0 -- -- 69
2021-03-01 18:00:00 16.4 6 Sudeste 14 Nordeste 0 -- -- 55
2021-03-01 17:00:00 16.4 9 Nordeste 21 Este 0 -- -- 58
2021-03-01 16:00:00 16.8 6 Este 24 Sudeste 0 -- -- 56
2021-03-01 15:00:00 15.9 12 Este 20 Sudeste 0 -- -- 65
2021-03-01 14:00:00 14 11 Sudeste 20 Este 0 -- -- 71
2021-03-01 13:00:00 13.6 13 Este 21 Sudeste 0 -- -- 74
2021-03-01 12:00:00 12.8 2 Norte 6 Sur 0 -- -- 77
2021-03-01 11:00:00 11.7 2 Sudoeste 11 Sudeste 0 -- -- 80
2021-03-01 10:00:00 10.8 7 Sur 12 Sudeste 0 -- -- 87
2021-03-01 09:00:00 8.6 8 Sur 14 Sur 0 -- -- 92
2021-03-01 08:00:00 7.5 8 Sur 11 Sur 0 -- -- 94
2021-03-01 07:00:00 7.4 8 Sudeste 11 Sur 0 -- -- 93
2021-03-01 06:00:00 7.6 9 Sur 12 Sur 0 -- -- 93
2021-03-01 05:00:00 8.3 8 Sur 11 Sudeste 0 -- -- 93
2021-03-01 04:00:00 7.9 7 Sur 9 Sur 0 -- -- 93
2021-03-01 03:00:00 7.7 7 Sur 10 Sur 0 -- -- 92
2021-03-01 02:00:00 8.2 6 Sur 9 Sur 0 -- -- 93
2021-03-01 01:00:00 6.9 8 Sudeste 9 Sudeste 0 -- -- 95
2021-03-01 00:00:00 6.8 5 Sudeste 10 Sudeste 0 -- -- 93
2021-02-28 23:00:00 7.5 6 Sudeste 9 Sudeste 0 -- -- 93
2021-02-28 22:00:00 8.1 6 Sudeste 9 Sudeste 0 -- -- 91
2021-02-28 21:00:00 9.5 4 Sur 6 Sudeste 0 -- -- 88
2021-02-28 20:00:00 11.2 4 Sudeste 7 Sudeste 0 -- -- 81
2021-02-28 19:00:00 13.9 5 Sudeste 14 Sudeste 0 -- -- 70
2021-02-28 18:00:00 15.5 12 Sudeste 20 Sudeste 0 -- -- 60
2021-02-28 17:00:00 16.6 9 Sur 22 Sudeste 0 -- -- 57
2021-02-28 16:00:00 16.6 14 Sudeste 25 Sudeste 0 -- -- 54
2021-02-28 15:00:00 16.7 13 Sudeste 25 Sudeste 0 -- -- 56
2021-02-28 14:00:00 16.4 15 Sudeste 25 Sudeste 0 -- -- 59
2021-02-28 13:00:00 15.5 13 Sudeste 28 Sudeste 0 -- -- 62
2021-02-28 12:00:00 14.2 18 Sudeste 30 Sudeste 0 -- -- 67
2021-02-28 11:00:00 13 15 Sudeste 30 Sudeste 0 -- -- 73
2021-02-28 10:00:00 10.9 15 Sudeste 22 Sudeste 0 -- -- 82
2021-02-28 09:00:00 5.9 4 Sudeste 9 Sudeste 0 -- -- 97
2021-02-28 08:00:00 5.3 3 Sudeste 8 Sudeste 0 -- -- 96
2021-02-28 07:00:00 6.2 4 Sudeste 12 Sudeste 0 -- -- 96
2021-02-28 06:00:00 6.7 9 Sudeste 16 Sudeste 0 -- -- 95
2021-02-28 05:00:00 7.3 6 Sudeste 11 Sudeste 0 -- -- 96
2021-02-28 04:00:00 7 9 Sudeste 12 Sudeste 0 -- -- 96
2021-02-28 03:00:00 7.2 7 Sudeste 11 Sudeste 0 -- -- 94
2021-02-28 02:00:00 7.7 8 Sur 12 Sudeste 0 -- -- 93
2021-02-28 01:00:00 8.1 8 Sur 10 Sudeste 0 -- -- 93
2021-02-28 00:00:00 8.3 5 Sudeste 9 Sudeste 0 -- -- 91
2021-02-27 23:00:00 8.7 5 Sur 7 Sur 0 -- -- 91
2021-02-27 22:00:00 9.7 4 Sudeste 9 Sudeste 0 -- -- 91
2021-02-27 21:00:00 10.9 4 Sudeste 8 Sudeste 0 -- -- 86
2021-02-27 20:00:00 12.8 0 Calma 8 Nordeste 0 -- -- 79
2021-02-27 19:00:00 14.5 2 Norte 13 Nordeste 0 -- -- 74
2021-02-27 18:00:00 16.3 4 Nordeste 12 Nordeste 0 -- -- 68
2021-02-27 17:00:00 16.9 3 Noroeste 13 Noroeste 0 -- -- 65
2021-02-27 16:00:00 17.4 6 Noroeste 13 Noroeste 0 -- -- 62
2021-02-27 15:00:00 17 6 Noroeste 10 Oeste 0 -- -- 67
2021-02-27 14:00:00 17.1 6 Oeste 12 Oeste 0 -- -- 63
2021-02-27 13:00:00 16.4 3 Norte 15 Sudeste 0 -- -- 67
2021-02-27 12:00:00 16 6 Sudeste 10 Sur 0 -- -- 63
2021-02-27 11:00:00 12.8 4 Sur 13 Sudeste 0 -- -- 82
2021-02-27 10:00:00 8 10 Sudeste 14 Sudeste 0 -- -- 99
2021-02-27 09:00:00 5.1 12 Sudeste 15 Sudeste 0 -- -- 98
2021-02-27 08:00:00 4.4 11 Sudeste 14 Sudeste 0.2 -- -- 98
2021-02-27 07:00:00 4 6 Sudeste 11 Sudeste 0 -- -- 97
2021-02-27 06:00:00 4.6 5 Sudeste 8 Sudeste 0 -- -- 97
2021-02-27 05:00:00 5 5 Sudeste 8 Sudeste 0 -- -- 97
2021-02-27 04:00:00 5.3 4 Sudeste 8 Sudeste 0 -- -- 97
2021-02-27 03:00:00 5.6 3 Sudeste 6 Sudeste 0 -- -- 96
2021-02-27 02:00:00 6 5 Sudeste 6 Sudeste 0 -- -- 96
2021-02-27 01:00:00 6.7 4 Sudeste 6 Sudeste 0 -- -- 95
2021-02-27 00:00:00 7.7 4 Sudeste 6 Sudeste 0 -- -- 94
2021-02-26 23:00:00 9 2 Sudeste 3 Sudeste 0 -- -- 92
2021-02-26 22:00:00 10.8 0 Calma 3 Oeste 0 -- -- 89
2021-02-26 21:00:00 11.7 3 Noroeste 7 Norte 0 -- -- 87
2021-02-26 20:00:00 12.5 5 Noroeste 8 Noroeste 0 -- -- 80
2021-02-26 19:00:00 14.8 0 Calma 12 Este 0 -- -- 66
2021-02-26 18:00:00 15.8 5 Nordeste 14 Nordeste 0 -- -- 60
2021-02-26 17:00:00 17.2 2 Este 8 Este 0 -- -- 55
2021-02-26 16:00:00 17.5 5 Este 13 Sur 0 -- -- 58
2021-02-26 15:00:00 17.5 5 Sudeste 17 Sudeste 0 -- -- 55
2021-02-26 14:00:00 16.8 9 Sudeste 18 Sudeste 0 -- -- 55
2021-02-26 13:00:00 16.2 6 Sudeste 17 Este 0 -- -- 59
2021-02-26 12:00:00 13.9 3 Oeste 6 Noroeste 0 -- -- 80
2021-02-26 11:00:00 11.7 3 Noroeste 10 Noroeste 0 -- -- 88
2021-02-26 10:00:00 10.2 3 Noroeste 6 Sudeste 0 -- -- 96
2021-02-26 09:00:00 9.3 3 Sudeste 5 Sudeste 0 -- -- 96
2021-02-26 08:00:00 9.2 2 Sudeste 14 Sudeste 0.4 -- -- 94
2021-02-26 07:00:00 9.6 8 Sudeste 12 Sudeste 0 -- -- 91
2021-02-26 06:00:00 9.1 5 Sudeste 10 Sudeste 0 -- -- 92
2021-02-26 05:00:00 8.6 4 Sudeste 10 Sudeste 0 -- -- 92
2021-02-26 04:00:00 8.6 7 Sudeste 11 Sudeste 0 -- -- 92
2021-02-26 03:00:00 8.4 8 Sudeste 10 Sudeste 0 -- -- 91
2021-02-26 02:00:00 9.9 6 Sudeste 11 Sur 0 -- -- 85
2021-02-26 01:00:00 11 9 Sudeste 15 Sudeste 0 -- -- 83
2021-02-26 00:00:00 10.7 4 Sudeste 10 Sur 0 -- -- 87
2021-02-25 23:00:00 11.7 9 Sudeste 14 Sur 0 -- -- 84
2021-02-25 22:00:00 11.2 5 Sudeste 9 Sudeste 0 -- -- 88
2021-02-25 21:00:00 10.9 5 Sudeste 8 Sur 0 -- -- 87
2021-02-25 20:00:00 12.2 5 Sur 10 Sudeste 0 -- -- 81
2021-02-25 19:00:00 14 9 Sudeste 17 Sudeste 0 -- -- 73
2021-02-25 18:00:00 14.8 13 Sudeste 22 Sudeste 0 -- -- 70
2021-02-25 17:00:00 15.6 3 Sudoeste 18 Sudoeste 0 -- -- 65
2021-02-25 16:00:00 16.2 8 Sur 15 Sur 0 -- -- 63
2021-02-25 15:00:00 16.1 5 Sudeste 19 Sudeste 0 -- -- 64
2021-02-25 14:00:00 15.9 11 Sudeste 19 Sudeste 0 -- -- 64
2021-02-25 13:00:00 15 14 Sur 26 Sudeste 0 -- -- 66
2021-02-25 12:00:00 13.4 15 Sudeste 24 Sudeste 0 -- -- 72
2021-02-25 11:00:00 11.4 12 Sudeste 20 Sudeste 0 -- -- 81
2021-02-25 10:00:00 9.5 9 Sudeste 12 Sudeste 0 -- -- 90
2021-02-25 09:00:00 7.8 5 Sudeste 8 Sudeste 0 -- -- 94
2021-02-25 08:00:00 7.2 6 Sur 13 Sudeste 0 -- -- 94
2021-02-25 07:00:00 6.1 9 Sudeste 11 Sudeste 0 -- -- 96
2021-02-25 06:00:00 5.8 9 Sudeste 10 Sudeste 0 -- -- 94
2021-02-25 05:00:00 6 6 Sudeste 8 Sudeste 0 -- -- 93
2021-02-25 04:00:00 7.9 5 Sudeste 18 Sudeste 0 -- -- 89
2021-02-25 03:00:00 8.5 11 Sudeste 20 Sudeste 0 -- -- 87
2021-02-25 02:00:00 8.2 7 Sudeste 12 Sudeste 0 -- -- 86
2021-02-25 01:00:00 7 6 Sudeste 12 Sudeste 0 -- -- 93
2021-02-25 00:00:00 7.2 6 Sudeste 14 Sudeste 0 -- -- 92
2021-02-24 23:00:00 8 6 Sudeste 10 Sudeste 0 -- -- 90
2021-02-24 22:00:00 9.3 8 Sudeste 16 Sudeste 0 -- -- 87
2021-02-24 21:00:00 10.1 10 Sur 14 Sur 0 -- -- 86
2021-02-24 20:00:00 11.4 5 Sudeste 8 Sudeste 0 -- -- 82
2021-02-24 19:00:00 14.4 6 Sudeste 21 Sudeste 0 -- -- 70
2021-02-24 18:00:00 16 17 Sudeste 32 Sudeste 0 -- -- 63
2021-02-24 17:00:00 16.8 17 Sur 32 Sudeste 0 -- -- 59
2021-02-24 16:00:00 17.1 21 Sudeste 39 Sudeste 0 -- -- 59
2021-02-24 15:00:00 17.1 21 Sudeste 40 Sudeste 0 -- -- 58
2021-02-24 14:00:00 16.7 27 Sudeste 45 Sudeste 0 -- -- 56
2021-02-24 13:00:00 16 26 Sudeste 44 Sur 0 -- -- 57
2021-02-24 12:00:00 14.4 27 Sudeste 44 Sudeste 0 -- -- 63
2021-02-24 11:00:00 13.1 22 Sudeste 32 Sudeste 0 -- -- 67
2021-02-24 10:00:00 10.1 12 Sudeste 17 Sudeste 0 -- -- 80
2021-02-24 09:00:00 4.7 10 Sudeste 17 Sudeste 0 -- -- 94
2021-02-24 08:00:00 4.1 10 Sudeste 13 Sudeste 0 -- -- 95
2021-02-24 07:00:00 5.4 4 Sudeste 18 Sur 0 -- -- 90
2021-02-24 06:00:00 6.1 14 Sudeste 18 Sudeste 0 -- -- 88
2021-02-24 05:00:00 6.4 14 Sur 20 Sudeste 0 -- -- 88
2021-02-24 04:00:00 5.1 11 Sudeste 15 Sudeste 0 -- -- 87
2021-02-24 03:00:00 4.2 12 Sudeste 14 Sudeste 0 -- -- 90
2021-02-24 02:00:00 4.6 8 Sudeste 11 Sur 0 -- -- 86
2021-02-24 01:00:00 5.1 5 Sudeste 10 Sur 0 -- -- 86
2021-02-24 00:00:00 5.1 8 Sudeste 15 Sudeste 0 -- -- 87
2021-02-23 23:00:00 5.7 8 Sur 12 Sur 0 -- -- 88
2021-02-23 22:00:00 6.4 7 Sudeste 11 Sur 0 -- -- 85
2021-02-23 21:00:00 8 6 Sudeste 12 Sudeste 0 -- -- 81
2021-02-23 20:00:00 9.3 6 Sudeste 9 Sudeste 0 -- -- 79
2021-02-23 19:00:00 13.2 5 Sur 21 Sudeste 0 -- -- 58
2021-02-23 18:00:00 16 16 Sudeste 27 Sur 0 -- -- 46
2021-02-23 17:00:00 16.8 15 Sudeste 26 Sudeste 0 -- -- 42
2021-02-23 16:00:00 16.7 16 Sudeste 29 Sur 0 -- -- 42
2021-02-23 15:00:00 16.6 12 Sudeste 28 Sudeste 0 -- -- 44
2021-02-23 14:00:00 15.9 12 Sudeste 27 Sudeste 0 -- -- 42
2021-02-23 13:00:00 15 16 Sudeste 30 Sudeste 0 -- -- 43
2021-02-23 12:00:00 13.9 16 Sudeste 26 Sudeste 0 -- -- 49
2021-02-23 11:00:00 11.8 12 Sudeste 18 Sudeste 0 -- -- 66
2021-02-23 10:00:00 8.9 10 Sur 15 Sur 0 -- -- 80
2021-02-23 09:00:00 4.1 6 Sudeste 11 Sudeste 0 -- -- 93
2021-02-23 08:00:00 3.5 8 Sudeste 12 Sudeste 0 -- -- 94
2021-02-23 07:00:00 2.6 8 Sudeste 12 Sudeste 0 -- -- 95
2021-02-23 06:00:00 2.9 8 Sudeste 11 Sudeste 0 -- -- 94
2021-02-23 05:00:00 3.7 9 Sur 13 Sur 0 -- -- 94
2021-02-23 04:00:00 3.7 8 Sur 13 Sur 0 -- -- 93
2021-02-23 03:00:00 4 8 Sur 12 Sudeste 0 -- -- 94
2021-02-23 02:00:00 4 9 Sudeste 13 Sur 0 -- -- 93
2021-02-23 01:00:00 4.5 7 Sur 11 Sudeste 0 -- -- 92
2021-02-23 00:00:00 4.8 7 Sur 12 Sur 0 -- -- 92
2021-02-22 23:00:00 5.7 9 Sur 12 Sur 0 -- -- 91
2021-02-22 22:00:00 5.8 9 Sudeste 12 Sur 0 -- -- 91
2021-02-22 21:00:00 5.9 7 Sudeste 9 Sudeste 0 -- -- 89
2021-02-22 20:00:00 7.6 5 Sudeste 8 Sudeste 0 -- -- 83
2021-02-22 19:00:00 11.5 2 Oeste 13 Oeste 0 -- -- 66
2021-02-22 18:00:00 13.5 4 Oeste 16 Noroeste 0 -- -- 56
2021-02-22 17:00:00 13.8 6 Noroeste 23 Sudoeste 0 -- -- 54
2021-02-22 16:00:00 13.1 10 Noroeste 22 Noroeste 0 -- -- 56
2021-02-22 15:00:00 13.5 12 Oeste 22 Oeste 0 -- -- 57
2021-02-22 14:00:00 12.4 3 Oeste 17 Noroeste 0 -- -- 60
2021-02-22 13:00:00 11.2 6 Noroeste 17 Noroeste 0 -- -- 64
2021-02-22 12:00:00 10.8 5 Norte 12 Norte 0 -- -- 69
2021-02-22 11:00:00 9.7 5 Norte 9 Norte 0 -- -- 73
2021-02-22 10:00:00 6.6 5 Sudeste 9 Sudeste 0 -- -- 93
2021-02-22 09:00:00 2.3 5 Sur 10 Sur 0 -- -- 98
2021-02-22 08:00:00 1.5 6 Sudeste 13 Sudeste 0 -- -- 96
2021-02-22 07:00:00 2 5 Sur 9 Sudeste 0 -- -- 95
2021-02-22 06:00:00 3.1 5 Sudeste 12 Oeste 0 -- -- 92
2021-02-22 05:00:00 4.6 9 Oeste 13 Oeste 0 -- -- 93
2021-02-22 04:00:00 4.3 2 Norte 14 Noroeste 0 -- -- 89
2021-02-22 03:00:00 4.6 0 Calma 17 Oeste 0 -- -- 89
2021-02-22 02:00:00 6.3 10 Oeste 23 Oeste 0 -- -- 87
2021-02-22 01:00:00 6.7 13 Noroeste 24 Noroeste 0 -- -- 85
2021-02-22 00:00:00 7.3 17 Noroeste 28 Oeste 0 -- -- 80
2021-02-21 23:00:00 7.9 17 Noroeste 29 Oeste 0 -- -- 78
2021-02-21 22:00:00 8.3 14 Noroeste 30 Oeste 0 -- -- 74
2021-02-21 21:00:00 8.7 16 Noroeste 33 Noroeste 0 -- -- 75
2021-02-21 20:00:00 9.3 20 Noroeste 32 Noroeste 0 -- -- 73
2021-02-21 19:00:00 10 23 Noroeste 33 Noroeste 0 -- -- 67
2021-02-21 18:00:00 10.6 20 Noroeste 34 Oeste 0 -- -- 68
2021-02-21 17:00:00 10 19 Noroeste 32 Noroeste 0 -- -- 74
2021-02-21 16:00:00 9.4 20 Noroeste 34 Noroeste 0 -- -- 77
2021-02-21 15:00:00 8.3 19 Noroeste 30 Noroeste 0 -- -- 83
2021-02-21 14:00:00 8 21 Noroeste 39 Noroeste 0 -- -- 83
2021-02-21 13:00:00 8.8 17 Noroeste 28 Noroeste 0.2 -- -- 83
2021-02-21 12:00:00 7.1 0 Calma 12 Noroeste 1 -- -- 92
2021-02-21 11:00:00 6.7 10 Noroeste 30 Noroeste 2.4 -- -- 93
2021-02-21 10:00:00 6.9 19 Noroeste 29 Norte 2 -- -- 94
2021-02-21 09:00:00 7.9 10 Noroeste 27 Noroeste 1.4 -- -- 93
2021-02-21 08:00:00 9.2 13 Noroeste 24 Sur 2.2 -- -- 88
2021-02-21 07:00:00 10.6 10 Sudeste 48 Sudeste 0.8 -- -- 86
2021-02-21 06:00:00 12.1 31 Sudeste 75 Sur 0 -- -- 71
2021-02-21 05:00:00 13.5 36 Sur 69 Sur 0 -- -- 65
2021-02-21 04:00:00 13.7 35 Sur 51 Sudeste 0 -- -- 62
2021-02-21 03:00:00 14 30 Sur 54 Sur 0 -- -- 51
2021-02-21 02:00:00 12.6 27 Sudeste 46 Sudeste 0 -- -- 59
2021-02-21 01:00:00 12.2 26 Sudeste 42 Sur 0 -- -- 65
2021-02-21 00:00:00 12.3 23 Sudeste 37 Sudeste 0 -- -- 68
2021-02-20 23:00:00 12.7 21 Sudeste 40 Sudeste 0 -- -- 66
2021-02-20 22:00:00 13.3 23 Sudeste 46 Sudeste 0 -- -- 69
2021-02-20 21:00:00 13.3 27 Sudeste 43 Sudeste 0 -- -- 68
2021-02-20 20:00:00 13.6 21 Sudeste 34 Sur 0 -- -- 64
2021-02-20 19:00:00 14.1 17 Sudeste 28 Sudeste 0 -- -- 61
2021-02-20 18:00:00 15.5 13 Sudeste 30 Sudeste 0 -- -- 51
2021-02-20 17:00:00 16.2 22 Sur 41 Sur 0 -- -- 50
2021-02-20 16:00:00 15.9 22 Sudeste 45 Sudeste 0 -- -- 59
2021-02-20 15:00:00 15 31 Sur 46 Sudeste 0 -- -- 54
2021-02-20 14:00:00 14.9 23 Sudeste 42 Sur 0 -- -- 53
2021-02-20 13:00:00 14.3 29 Sudeste 51 Sudeste 0 -- -- 60
2021-02-20 12:00:00 13.6 30 Sudeste 47 Sudeste 0 -- -- 64
2021-02-20 11:00:00 12.6 23 Sudeste 44 Sur 0 -- -- 71
2021-02-20 10:00:00 11.4 19 Sudeste 40 Sur 0 -- -- 78
2021-02-20 09:00:00 10.7 24 Sur 44 Sudeste 0 -- -- 79
2021-02-20 08:00:00 10.1 14 Sudeste 34 Sudeste 0 -- -- 82
2021-02-20 07:00:00 10.5 19 Sudeste 35 Sudeste 0 -- -- 81
2021-02-20 06:00:00 10.5 17 Sudeste 31 Sudeste 0 -- -- 83
2021-02-20 05:00:00 9.6 17 Este 24 Este 0 -- -- 88
2021-02-20 04:00:00 9.4 12 Sudeste 23 Sur 0 -- -- 87
2021-02-20 03:00:00 8.9 11 Sudeste 18 Sudeste 0 -- -- 91
2021-02-20 02:00:00 8.8 8 Sudeste 15 Sudeste 0 -- -- 91
2021-02-20 01:00:00 9.9 11 Sudeste 24 Sudeste 0 -- -- 89
2021-02-20 00:00:00 11 16 Sudeste 29 Sudeste 0 -- -- 86
2021-02-19 23:00:00 10.2 9 Sudeste 17 Sudeste 0 -- -- 84
2021-02-19 22:00:00 10.5 13 Sudeste 20 Sudeste 0 -- -- 83
2021-02-19 21:00:00 11 10 Sudeste 18 Sur 0 -- -- 82
2021-02-19 20:00:00 10.8 7 Sur 17 Sudoeste 0 -- -- 80
2021-02-19 19:00:00 14.1 9 Sur 19 Sur 0 -- -- 65
2021-02-19 18:00:00 16.1 4 Oeste 15 Sur 0 -- -- 58
2021-02-19 17:00:00 17.7 5 Sur 26 Sur 0 -- -- 52
2021-02-19 16:00:00 17.8 16 Oeste 29 Noroeste 0 -- -- 48
2021-02-19 15:00:00 18.6 16 Sudeste 31 Sur 0 -- -- 49
2021-02-19 14:00:00 18.6 12 Sur 28 Sudeste 0 -- -- 46
2021-02-19 13:00:00 17.2 15 Sur 27 Sur 0 -- -- 53
2021-02-19 12:00:00 14.4 15 Sudeste 22 Sudeste 0 -- -- 68
2021-02-19 11:00:00 12.1 13 Sudeste 18 Sudeste 0 -- -- 74
2021-02-19 10:00:00 9.4 13 Sudeste 18 Sudeste 0 -- -- 88
2021-02-19 09:00:00 5.5 9 Sudeste 14 Sudeste 0 -- -- 98
2021-02-19 08:00:00 4.6 10 Sudeste 17 Sudeste 0 -- -- 96
2021-02-19 07:00:00 5.4 14 Sudeste 20 Sudeste 0 -- -- 95
2021-02-19 06:00:00 6 10 Sudeste 20 Sudeste 0 -- -- 97
2021-02-19 05:00:00 5.6 11 Sudeste 15 Sudeste 0 -- -- 97
2021-02-19 04:00:00 5.5 10 Sur 17 Sudeste 0 -- -- 97
2021-02-19 03:00:00 6 13 Sur 16 Sur 0 -- -- 97
2021-02-19 02:00:00 6.8 9 Sur 13 Sur 0 -- -- 97
2021-02-19 01:00:00 7.1 9 Sur 14 Sudeste 0 -- -- 96
2021-02-19 00:00:00 7.6 11 Sur 13 Sur 0 -- -- 94
2021-02-18 23:00:00 8 7 Sur 10 Sudeste 0 -- -- 89
2021-02-18 22:00:00 8.6 7 Sudeste 9 Sudeste 0 -- -- 84
2021-02-18 21:00:00 8.9 6 Sudeste 9 Sudeste 0 -- -- 82
2021-02-18 20:00:00 10.5 5 Sudeste 7 Sur 0 -- -- 77
2021-02-18 19:00:00 14.7 3 Sudeste 10 Noroeste 0 -- -- 59
2021-02-18 18:00:00 18.1 8 Oeste 15 Oeste 0 -- -- 42
2021-02-18 17:00:00 19.1 6 Oeste 20 Oeste 0 -- -- 38
2021-02-18 16:00:00 19.1 9 Oeste 21 Oeste 0 -- -- 36
2021-02-18 15:00:00 18.7 12 Oeste 23 Noroeste 0 -- -- 37
2021-02-18 14:00:00 18.5 9 Sudoeste 21 Oeste 0 -- -- 37
2021-02-18 13:00:00 18.3 8 Oeste 18 Noroeste 0 -- -- 39
2021-02-18 12:00:00 17.1 8 Sudeste 14 Sudeste 0 -- -- 48
2021-02-18 11:00:00 13.2 9 Sudeste 16 Sudeste 0 -- -- 72
2021-02-18 10:00:00 9.3 8 Sudeste 13 Sudeste 0 -- -- 85
2021-02-18 09:00:00 6.1 8 Sudeste 12 Sur 0 -- -- 92
2021-02-18 08:00:00 5.2 8 Sur 12 Sur 0 -- -- 92
2021-02-18 07:00:00 5 9 Sudeste 13 Sur 0 -- -- 93
2021-02-18 06:00:00 4.5 9 Sudeste 12 Sudeste 0 -- -- 95
2021-02-18 05:00:00 4.9 6 Sudeste 7 Sudeste 0 -- -- 93
2021-02-18 04:00:00 7 5 Sudeste 13 Sur 0 -- -- 87
2021-02-18 03:00:00 7.5 9 Sur 11 Sur 0 -- -- 90
2021-02-18 02:00:00 7.1 7 Sur 10 Sur 0 -- -- 93
2021-02-18 01:00:00 7.4 7 Sur 10 Sur 0 -- -- 91
2021-02-18 00:00:00 8.1 9 Sudeste 10 Sudeste 0 -- -- 89
2021-02-17 23:00:00 11.5 8 Este 17 Sur 0 -- -- 76
2021-02-17 22:00:00 12.5 5 Sur 18 Sudoeste 0 -- -- 69
2021-02-17 21:00:00 15 8 Sudoeste 21 Sudoeste 0 -- -- 57
2021-02-17 20:00:00 14.8 5 Sudoeste 15 Oeste 0 -- -- 58
2021-02-17 19:00:00 17.3 3 Sudoeste 12 Oeste 0 -- -- 51
2021-02-17 18:00:00 20 9 Oeste 19 Oeste 0 -- -- 37
2021-02-17 17:00:00 21.5 7 Oeste 17 Oeste 0 -- -- 35
2021-02-17 16:00:00 21.9 6 Sur 18 Oeste 0 -- -- 34
2021-02-17 15:00:00 20.5 8 Oeste 19 Oeste 0 -- -- 31
2021-02-17 14:00:00 20.7 4 Sur 22 Sur 0 -- -- 35
2021-02-17 13:00:00 19.8 9 Sur 17 Sur 0 -- -- 39
2021-02-17 12:00:00 16.7 9 Sudeste 13 Sudeste 0 -- -- 59
2021-02-17 11:00:00 13.5 9 Sur 13 Sur 0 -- -- 78
2021-02-17 10:00:00 8.7 5 Sudeste 14 Sudeste 0 -- -- 96
2021-02-17 09:00:00 4.2 11 Sudeste 13 Sudeste 0 -- -- 98
2021-02-17 08:00:00 3.9 8 Sudeste 11 Sudeste 0 -- -- 97
2021-02-17 07:00:00 4.6 9 Sudeste 13 Sudeste 0 -- -- 97
2021-02-17 06:00:00 4.6 10 Sudeste 13 Sudeste 0 -- -- 97
2021-02-17 05:00:00 4.9 9 Sudeste 13 Sudeste 0 -- -- 96
2021-02-17 04:00:00 5.8 9 Sudeste 11 Sudeste 0 -- -- 96
2021-02-17 03:00:00 6.3 9 Sudeste 12 Sur 0 -- -- 96
2021-02-17 02:00:00 6.9 8 Sudeste 11 Sur 0 -- -- 96
2021-02-17 01:00:00 6.9 9 Sur 12 Sur 0 -- -- 97
2021-02-17 00:00:00 6.8 5 Sudeste 8 Sudeste 0 -- -- 96
2021-02-16 23:00:00 7.6 5 Sudeste 7 Sudeste 0 -- -- 95
2021-02-16 22:00:00 8.3 4 Sudeste 5 Sudeste 0 -- -- 93
2021-02-16 21:00:00 9.3 3 Sudeste 5 Sudeste 0 -- -- 91
2021-02-16 20:00:00 11 3 Sudeste 4 Sudeste 0 -- -- 86
2021-02-16 19:00:00 13.6 3 Noroeste 10 Noroeste 0 -- -- 77
2021-02-16 18:00:00 16.6 5 Oeste 14 Noroeste 0 -- -- 66
2021-02-16 17:00:00 17.4 9 Noroeste 15 Noroeste 0 -- -- 63
2021-02-16 16:00:00 17.6 10 Noroeste 13 Noroeste 0 -- -- 62
2021-02-16 15:00:00 17 7 Noroeste 15 Noroeste 0 -- -- 65
2021-02-16 14:00:00 16.1 8 Noroeste 13 Noroeste 0 -- -- 66
2021-02-16 13:00:00 15 8 Noroeste 14 Noroeste 0 -- -- 66
2021-02-16 12:00:00 13.5 8 Noroeste 14 Noroeste 0 -- -- 74
2021-02-16 11:00:00 11.5 10 Noroeste 13 Noroeste 0 -- -- 77
2021-02-16 10:00:00 10.2 6 Noroeste 22 Sudeste 0 -- -- 73
2021-02-16 09:00:00 6.4 9 Sudeste 14 Sur 0 -- -- 84
2021-02-16 08:00:00 5.8 6 Sur 21 Sudeste 0 -- -- 83
2021-02-16 07:00:00 6.3 14 Sudeste 23 Sudeste 0 -- -- 83
2021-02-16 06:00:00 6.8 15 Sudeste 23 Sudeste 0 -- -- 84
2021-02-16 05:00:00 7 15 Sudeste 22 Sudeste 0 -- -- 84
2021-02-16 04:00:00 6.2 14 Sudeste 21 Sudeste 0 -- -- 86
2021-02-16 03:00:00 7.2 16 Sudeste 22 Sudeste 0 -- -- 83
2021-02-16 02:00:00 7.9 14 Sudeste 25 Sudeste 0 -- -- 81
2021-02-16 01:00:00 9.2 18 Sudeste 22 Sudeste 0 -- -- 76
2021-02-16 00:00:00 11 18 Sudeste 25 Sur 0 -- -- 67
2021-02-15 23:00:00 10.6 17 Sudeste 28 Sudeste 0 -- -- 69
2021-02-15 22:00:00 10.7 18 Sudeste 26 Sudeste 0 -- -- 71
2021-02-15 21:00:00 11.4 18 Sudeste 26 Sudeste 0 -- -- 73
2021-02-15 20:00:00 12.5 16 Sudeste 22 Sudeste 0 -- -- 70
2021-02-15 19:00:00 14.6 15 Sudeste 28 Sudeste 0 -- -- 65
2021-02-15 18:00:00 16.8 17 Sudeste 33 Sudeste 0 -- -- 60
2021-02-15 17:00:00 18.3 17 Sudeste 31 Sudeste 0 -- -- 53
2021-02-15 16:00:00 18.9 17 Sudeste 31 Sudeste 0 -- -- 50
2021-02-15 15:00:00 18.5 19 Sudeste 33 Sudeste 0 -- -- 51
2021-02-15 14:00:00 17.7 21 Sudeste 33 Sudeste 0 -- -- 53
2021-02-15 13:00:00 16.6 20 Sudeste 37 Sudeste 0 -- -- 54
2021-02-15 12:00:00 14.8 23 Sudeste 35 Sudeste 0 -- -- 61
2021-02-15 11:00:00 12.8 21 Sudeste 33 Sudeste 0 -- -- 65
2021-02-15 10:00:00 10.6 18 Sudeste 24 Sudeste 0 -- -- 74
2021-02-15 09:00:00 7.1 11 Sudeste 16 Sudeste 0 -- -- 84
2021-02-15 08:00:00 5.9 12 Sudeste 18 Sudeste 0 -- -- 86
2021-02-15 07:00:00 6.1 13 Sudeste 19 Sur 0 -- -- 85
2021-02-15 06:00:00 6.6 15 Sur 22 Sur 0 -- -- 86
2021-02-15 05:00:00 5.6 11 Sur 17 Sur 0 -- -- 90
2021-02-15 04:00:00 5.4 13 Sudeste 15 Sudeste 0 -- -- 91
2021-02-15 03:00:00 5.3 9 Sudeste 15 Sudeste 0 -- -- 90
2021-02-15 02:00:00 5.7 9 Sudeste 14 Sur 0 -- -- 88
2021-02-15 01:00:00 6.2 10 Sudeste 14 Sudeste 0 -- -- 88
2021-02-15 00:00:00 6.9 10 Sudeste 13 Sudeste 0 -- -- 89
2021-02-14 23:00:00 7.5 9 Sudeste 13 Sur 0 -- -- 88
2021-02-14 22:00:00 8.9 9 Sur 16 Sudeste 0 -- -- 86
2021-02-14 21:00:00 10.5 12 Sudeste 14 Sudeste 0 -- -- 80
2021-02-14 20:00:00 12.2 6 Sur 9 Sur 0 -- -- 76
2021-02-14 19:00:00 14.8 6 Sur 10 Sur 0 -- -- 67
2021-02-14 18:00:00 19 7 Sur 15 Sur 0 -- -- 47
2021-02-14 17:00:00 20.7 10 Sur 18 Sur 0 -- -- 43
2021-02-14 16:00:00 20.7 11 Sudeste 24 Sur 0 -- -- 42
2021-02-14 15:00:00 20.3 14 Sudeste 24 Sur 0 -- -- 42
2021-02-14 14:00:00 19.6 14 Sudeste 23 Sudeste 0 -- -- 42
2021-02-14 13:00:00 18.7 12 Sudeste 20 Sur 0 -- -- 46
2021-02-14 12:00:00 16.9 11 Sudeste 15 Sudeste 0 -- -- 54
2021-02-14 11:00:00 14.4 9 Sur 15 Sur 0 -- -- 63
2021-02-14 10:00:00 10 8 Sudeste 14 Sudeste 0 -- -- 78
2021-02-14 09:00:00 4.9 10 Sudeste 16 Sudeste 0 -- -- 91
2021-02-14 08:00:00 3.7 13 Sudeste 14 Sudeste 0 -- -- 93
2021-02-14 07:00:00 3.9 10 Sudeste 18 Sudeste 0 -- -- 92
2021-02-14 06:00:00 4.6 11 Sudeste 14 Sudeste 0 -- -- 90
2021-02-14 05:00:00 4.3 8 Sudeste 13 Sudeste 0 -- -- 95
2021-02-14 04:00:00 4.6 9 Sur 13 Sudeste 0 -- -- 94
2021-02-14 03:00:00 4.8 9 Sudeste 14 Sudeste 0 -- -- 95
2021-02-14 02:00:00 5.2 9 Sudeste 14 Sudeste 0 -- -- 95
2021-02-14 01:00:00 5.2 9 Sudeste 10 Sudeste 0 -- -- 94
2021-02-14 00:00:00 4.8 6 Sudeste 9 Sudeste 0 -- -- 95
2021-02-13 23:00:00 5.8 6 Sudeste 10 Sudeste 0 -- -- 93
2021-02-13 22:00:00 6.4 6 Sudeste 8 Sudeste 0 -- -- 93
2021-02-13 21:00:00 7.5 5 Sudeste 8 Sudeste 0 -- -- 93
2021-02-13 20:00:00 9.4 0 Calma 4 Noroeste 0 -- -- 88
2021-02-13 19:00:00 12.2 4 Noroeste 8 Noroeste 0 -- -- 79
2021-02-13 18:00:00 15.4 5 Noroeste 9 Oeste 0 -- -- 66
2021-02-13 17:00:00 17 5 Oeste 13 Noroeste 0 -- -- 60
2021-02-13 16:00:00 16.6 8 Noroeste 15 Noroeste 0 -- -- 63
2021-02-13 15:00:00 16.1 5 Noroeste 12 Noroeste 0 -- -- 60
2021-02-13 14:00:00 14.7 6 Noroeste 19 Noroeste 0 -- -- 71
2021-02-13 13:00:00 13.8 8 Noroeste 15 Noroeste 0 -- -- 76
2021-02-13 08:00:00 3.6 5 Sudeste 8 Sudeste 0.2 -- -- 99
2021-02-13 07:00:00 3.2 5 Sudeste 8 Sudeste 0 -- -- 99
2021-02-13 06:00:00 3.4 6 Sudeste 9 Sudeste 0 -- -- 98
2021-02-13 05:00:00 3.7 6 Sudeste 9 Sudeste 0 -- -- 98
2021-02-13 04:00:00 4.1 5 Sudeste 8 Sur 0 -- -- 98
2021-02-13 03:00:00 4.8 5 Sudeste 9 Sudeste 0 -- -- 97
2021-02-13 02:00:00 4.9 5 Sudeste 8 Sudeste 0 -- -- 97
2021-02-13 01:00:00 5.3 7 Sudeste 10 Sudeste 0 -- -- 96
2021-02-13 00:00:00 5.8 6 Sudeste 8 Sudeste 0 -- -- 97
2021-02-12 23:00:00 5.9 6 Sudeste 10 Sudeste 0 -- -- 96
2021-02-12 22:00:00 6.6 5 Sudeste 8 Sudeste 0 -- -- 95
2021-02-12 21:00:00 7.7 3 Sudeste 8 Sudeste 0 -- -- 93
2021-02-12 20:00:00 9.2 0 Calma 7 Sudeste 0 -- -- 88
2021-02-12 19:00:00 11.1 6 Noroeste 15 Oeste 0 -- -- 80
2021-02-12 18:00:00 13.7 8 Noroeste 21 Noroeste 0 -- -- 70
2021-02-12 17:00:00 15.1 14 Noroeste 27 Noroeste 0 -- -- 63
2021-02-12 16:00:00 15.2 19 Noroeste 27 Noroeste 0 -- -- 64
2021-02-12 15:00:00 14.9 17 Noroeste 25 Noroeste 0 -- -- 63
2021-02-12 14:00:00 14.4 13 Noroeste 30 Noroeste 0 -- -- 67
2021-02-12 13:00:00 13.1 19 Noroeste 31 Noroeste 0 -- -- 74
2021-02-12 12:00:00 12.8 14 Noroeste 27 Norte 0 -- -- 80
2021-02-12 11:00:00 11.4 9 Noroeste 19 Noroeste 0 -- -- 86
2021-02-12 10:00:00 10.3 8 Noroeste 13 Noroeste 0 -- -- 90
2021-02-12 09:00:00 8.6 3 Sudeste 21 Noroeste 0 -- -- 93
2021-02-12 08:00:00 9.6 10 Oeste 20 Noroeste 0 -- -- 89
2021-02-12 07:00:00 10.1 8 Sudoeste 26 Noroeste 0 -- -- 87
2021-02-12 06:00:00 11.2 18 Noroeste 37 Noroeste 1 -- -- 89
2021-02-12 05:00:00 12.7 9 Noroeste 32 Sudoeste 0 -- -- 90
2021-02-12 04:00:00 12.3 8 Sudoeste 26 Sur 0.2 -- -- 95
2021-02-12 03:00:00 12.4 10 Sudeste 29 Sur 0 -- -- 93
2021-02-12 02:00:00 12.7 7 Sudeste 20 Sudeste 0 -- -- 90
2021-02-12 01:00:00 12.9 9 Sudeste 25 Sudeste 0 -- -- 90
2021-02-12 00:00:00 13 9 Sudeste 20 Sudeste 0 -- -- 90
2021-02-11 23:00:00 13 11 Sudeste 21 Sudeste 0 -- -- 90
2021-02-11 22:00:00 13.2 9 Sudeste 15 Sur 0 -- -- 88
2021-02-11 21:00:00 13.2 8 Sur 15 Sudeste 0 -- -- 91
2021-02-11 20:00:00 12.8 6 Sur 10 Sur 0 -- -- 92
2021-02-11 19:00:00 13.3 4 Oeste 16 Sudeste 0 -- -- 89
2021-02-11 18:00:00 13.2 7 Sur 24 Oeste 0 -- -- 90
2021-02-11 17:00:00 14.4 10 Oeste 24 Oeste 0 -- -- 85
2021-02-11 16:00:00 16 5 Sur 21 Sudeste 0 -- -- 74
2021-02-11 15:00:00 15 10 Oeste 19 Oeste 0 -- -- 82
2021-02-11 14:00:00 14.7 3 Sudeste 25 Sur 0 -- -- 85
2021-02-11 13:00:00 14.6 8 Sur 22 Sur 0 -- -- 85
2021-02-11 12:00:00 13.9 8 Sur 19 Sur 0 -- -- 88
2021-02-11 11:00:00 13.1 13 Sudeste 20 Sudeste 0 -- -- 90
2021-02-11 10:00:00 12.2 6 Sudeste 17 Sudeste 0 -- -- 94
2021-02-11 09:00:00 11.8 11 Sudeste 18 Sur 0 -- -- 96
2021-02-11 08:00:00 11.8 10 Sur 29 Sur 0 -- -- 96
2021-02-11 07:00:00 11.9 11 Sudoeste 27 Sur 0 -- -- 95
2021-02-11 06:00:00 12.1 8 Sur 18 Sur 0 -- -- 95
2021-02-11 05:00:00 12.3 10 Sur 21 Sudeste 0.2 -- -- 94
2021-02-11 04:00:00 12.4 3 Sur 17 Sudoeste 0 -- -- 93
2021-02-11 03:00:00 12.6 6 Sudoeste 25 Sur 0 -- -- 95
2021-02-11 02:00:00 12.7 14 Sudoeste 30 Sudoeste 0 -- -- 95
2021-02-11 01:00:00 13 5 Sur 27 Oeste 0.2 -- -- 95
2021-02-11 00:00:00 13.4 6 Sudoeste 18 Sudoeste 0 -- -- 93
2021-02-10 23:00:00 13.6 8 Oeste 23 Oeste 0 -- -- 91
2021-02-10 22:00:00 13.7 9 Oeste 21 Oeste 0.4 -- -- 94
2021-02-10 21:00:00 13.9 4 Oeste 9 Oeste 0 -- -- 92
2021-02-10 20:00:00 13.8 0 Calma 12 Sudoeste 0 -- -- 92
2021-02-10 19:00:00 14 3 Oeste 12 Oeste 0 -- -- 91
2021-02-10 18:00:00 14.4 6 Oeste 18 Oeste 0 -- -- 88
2021-02-10 17:00:00 15.2 9 Oeste 23 Oeste 0 -- -- 84
2021-02-10 16:00:00 14.2 7 Oeste 17 Oeste 0 -- -- 89
2021-02-10 15:00:00 13.6 7 Sudoeste 20 Oeste 0 -- -- 92
2021-02-10 14:00:00 14 7 Noroeste 24 Noroeste 0 -- -- 87
2021-02-10 13:00:00 13.7 13 Noroeste 33 Noroeste 0 -- -- 88
2021-02-10 12:00:00 13.2 17 Noroeste 31 Norte 0 -- -- 90
2021-02-10 11:00:00 12.1 5 Noroeste 13 Noroeste 0 -- -- 98
2021-02-10 10:00:00 10.7 8 Norte 13 Noroeste 0.4 -- -- 99
2021-02-10 09:00:00 9.9 4 Noroeste 12 Noroeste 1.8 -- -- 98
2021-02-10 08:00:00 10.1 4 Noroeste 7 Noroeste 2.2 -- -- 97
2021-02-10 07:00:00 10.5 0 Calma 17 Oeste 2.2 -- -- 96
2021-02-10 06:00:00 11.1 9 Oeste 32 Oeste 1 -- -- 93
2021-02-10 05:00:00 11 14 Oeste 37 Oeste 1.2 -- -- 93
2021-02-10 04:00:00 11.2 19 Oeste 49 Oeste 0.2 -- -- 91
2021-02-10 03:00:00 11.1 20 Oeste 55 Oeste 0 -- -- 87
2021-02-10 02:00:00 11.1 21 Oeste 48 Oeste 0 -- -- 84
2021-02-10 01:00:00 10.8 22 Oeste 46 Sudoeste 0 -- -- 84
2021-02-10 00:00:00 10.7 20 Oeste 51 Oeste 0 -- -- 86
2021-02-09 23:00:00 10.5 17 Oeste 46 Oeste 0.2 -- -- 84
2021-02-09 22:00:00 10.3 15 Oeste 39 Oeste 2.4 -- -- 89
2021-02-09 21:00:00 10.1 11 Oeste 42 Oeste 0 -- -- 90
2021-02-09 20:00:00 10.5 19 Oeste 42 Sudoeste 1.2 -- -- 86
2021-02-09 19:00:00 11.2 13 Oeste 37 Oeste 0.2 -- -- 91
2021-02-09 18:00:00 11.3 12 Oeste 39 Oeste 0.4 -- -- 91
2021-02-09 17:00:00 11.4 18 Oeste 40 Oeste 2.8 -- -- 91
2021-02-09 16:00:00 11.2 16 Noroeste 41 Oeste 5.2 -- -- 91
2021-02-09 15:00:00 11.3 18 Oeste 47 Oeste 3.6 -- -- 91
2021-02-09 14:00:00 11.8 15 Noroeste 55 Oeste 1.4 -- -- 87
2021-02-09 13:00:00 11.1 18 Sur 67 Sur 3.2 -- -- 90
2021-02-09 12:00:00 11.5 19 Sudeste 55 Sudeste 0.6 -- -- 85
2021-02-09 11:00:00 11.3 17 Sudeste 51 Sur 0.4 -- -- 85
2021-02-09 10:00:00 10.5 25 Sur 50 Sudoeste 0.4 -- -- 89
2021-02-09 09:00:00 10.8 23 Sur 53 Sur 0 -- -- 81
2021-02-09 08:00:00 10.6 17 Sur 54 Sur 0 -- -- 81
2021-02-09 07:00:00 10.1 18 Sur 51 Sur 0 -- -- 82
2021-02-09 06:00:00 9.9 21 Sudeste 54 Sudeste 0 -- -- 88
2021-02-09 05:00:00 10.2 17 Sudeste 53 Sur 0 -- -- 85
2021-02-09 04:00:00 9.9 15 Sudeste 40 Sudeste 0 -- -- 88
2021-02-09 03:00:00 9.8 15 Sudeste 39 Sur 0 -- -- 90
2021-02-09 02:00:00 9.4 13 Sudeste 27 Sudeste 0 -- -- 93
2021-02-09 01:00:00 9.3 14 Sudeste 21 Sudeste 0 -- -- 89
2021-02-09 00:00:00 9.3 6 Sudoeste 26 Sur 0 -- -- 88
2021-02-08 23:00:00 9.5 8 Sudoeste 25 Oeste 0 -- -- 86
2021-02-08 22:00:00 10 8 Oeste 27 Sudoeste 0 -- -- 87
2021-02-08 21:00:00 10.3 10 Oeste 28 Sudoeste 0 -- -- 86
2021-02-08 20:00:00 9.9 5 Oeste 32 Noroeste 0 -- -- 73
2021-02-08 19:00:00 11.1 22 Noroeste 37 Noroeste 0 -- -- 70
2021-02-08 18:00:00 12.1 12 Oeste 38 Noroeste 0 -- -- 71
2021-02-08 17:00:00 12.6 23 Noroeste 41 Noroeste 0 -- -- 67
2021-02-08 16:00:00 12.4 20 Noroeste 39 Noroeste 0 -- -- 69
2021-02-08 15:00:00 12.3 15 Oeste 44 Noroeste 0 -- -- 69
2021-02-08 14:00:00 12.2 18 Oeste 45 Oeste 0 -- -- 70
2021-02-08 13:00:00 11.6 13 Oeste 37 Sudoeste 0 -- -- 76
2021-02-08 12:00:00 8.8 24 Noroeste 57 Oeste 2 -- -- 87
2021-02-08 11:00:00 10.6 19 Oeste 39 Oeste 0 -- -- 80
2021-02-08 10:00:00 10 12 Noroeste 40 Oeste 0 -- -- 81
2021-02-08 09:00:00 9.4 19 Noroeste 41 Noroeste 0 -- -- 81
2021-02-08 08:00:00 9.1 26 Noroeste 42 Norte 0 -- -- 83
2021-02-08 07:00:00 9 14 Noroeste 52 Noroeste 0 -- -- 84
2021-02-08 06:00:00 9 15 Noroeste 48 Noroeste 0 -- -- 85
2021-02-08 05:00:00 9.2 21 Noroeste 54 Noroeste 2.2 -- -- 88
2021-02-08 04:00:00 11.2 20 Sudeste 51 Sur 3.8 -- -- 94
2021-02-08 03:00:00 10.7 24 Sur 66 Sur 2.2 -- -- 93
2021-02-08 02:00:00 10.2 14 Sudeste 48 Sudoeste 0.4 -- -- 93
2021-02-08 01:00:00 9.6 19 Sur 43 Sudoeste 0.2 -- -- 93
2021-02-08 00:00:00 8.9 10 Sudeste 45 Sudoeste 0 -- -- 93
2021-02-07 23:00:00 9.2 23 Sur 48 Sur 0.2 -- -- 90
2021-02-07 22:00:00 9 16 Sudeste 30 Sudeste 0 -- -- 91
2021-02-07 21:00:00 8.6 10 Sudeste 22 Sudeste 0 -- -- 92
2021-02-07 20:00:00 8.3 10 Sudeste 25 Sur 0 -- -- 90
2021-02-07 19:00:00 8.8 10 Sudeste 21 Sur 0 -- -- 84
2021-02-07 18:00:00 9.3 10 Oeste 26 Oeste 0 -- -- 77
2021-02-07 17:00:00 9.7 13 Oeste 31 Oeste 0 -- -- 74
2021-02-07 16:00:00 9.6 12 Noroeste 32 Noroeste 0 -- -- 71
2021-02-07 15:00:00 9.3 11 Noroeste 36 Noroeste 0 -- -- 70
2021-02-07 14:00:00 8.8 21 Noroeste 34 Noroeste 0 -- -- 73
2021-02-07 13:00:00 9.4 20 Noroeste 35 Noroeste 0 -- -- 73
2021-02-07 12:00:00 8.7 19 Noroeste 30 Noroeste 0 -- -- 69
2021-02-07 11:00:00 8.3 12 Noroeste 20 Norte 0 -- -- 76
2021-02-07 10:00:00 7.1 5 Noroeste 16 Oeste 0 -- -- 88
2021-02-07 09:00:00 6.9 3 Noroeste 15 Oeste 0 -- -- 91
2021-02-07 08:00:00 6.7 8 Oeste 16 Oeste 0 -- -- 91
2021-02-07 07:00:00 7.3 5 Noroeste 20 Oeste 0 -- -- 93
2021-02-07 06:00:00 7.8 6 Oeste 12 Noroeste 0 -- -- 93
2021-02-07 05:00:00 7.9 5 Noroeste 11 Noroeste 0 -- -- 96
2021-02-07 04:00:00 8.2 5 Noroeste 8 Noroeste 0 -- -- 97
2021-02-07 03:00:00 8.2 5 Noroeste 15 Noroeste 0 -- -- 96
2021-02-07 02:00:00 8.3 6 Noroeste 9 Noroeste 0 -- -- 97
2021-02-07 01:00:00 8.3 4 Noroeste 11 Norte 0 -- -- 98
2021-02-07 00:00:00 8.2 7 Noroeste 14 Norte 0 -- -- 98
2021-02-06 23:00:00 8.2 9 Noroeste 15 Noroeste 0 -- -- 98
2021-02-06 22:00:00 8.2 5 Noroeste 10 Noroeste 0.6 -- -- 98
2021-02-06 21:00:00 8.2 0 Calma 4 Norte 0 -- -- 97
2021-02-06 20:00:00 8.2 2 Norte 5 Noroeste 0.4 -- -- 97
2021-02-06 19:00:00 8.5 2 Noroeste 7 Oeste 1.6 -- -- 96
2021-02-06 18:00:00 8.7 3 Noroeste 9 Noroeste 2.2 -- -- 95
2021-02-06 17:00:00 9.3 6 Noroeste 16 Oeste 0.2 -- -- 90
2021-02-06 16:00:00 10 8 Oeste 18 Oeste 0 -- -- 84
2021-02-06 15:00:00 10 6 Sudoeste 21 Oeste 0.2 -- -- 86
2021-02-06 14:00:00 10.3 7 Oeste 21 Oeste 0.6 -- -- 86
2021-02-06 13:00:00 10.3 6 Oeste 13 Sur 0 -- -- 88
2021-02-06 12:00:00 9.6 4 Sur 8 Noroeste 0 -- -- 89
2021-02-06 11:00:00 9.2 6 Sur 15 Sur 0 -- -- 90
2021-02-06 10:00:00 8.7 5 Oeste 12 Sudoeste 0 -- -- 91
2021-02-06 09:00:00 8.4 3 Oeste 13 Norte 0 -- -- 94
2021-02-06 08:00:00 8.4 4 Norte 28 Sudeste 0 -- -- 96
2021-02-06 07:00:00 8.2 15 Sudeste 28 Sudeste 0 -- -- 96
2021-02-06 06:00:00 8.1 6 Sur 26 Sur 0 -- -- 93
2021-02-06 05:00:00 8.2 12 Sur 33 Sur 0 -- -- 93
2021-02-06 04:00:00 8.5 3 Noroeste 26 Sur 0 -- -- 92
2021-02-06 03:00:00 8.9 6 Sur 26 Sur 0 -- -- 93
2021-02-06 02:00:00 9.1 7 Sur 24 Sur 0.2 -- -- 94
2021-02-06 01:00:00 9.3 5 Sudeste 13 Sudeste 0 -- -- 94
2021-02-06 00:00:00 9.4 5 Sur 13 Sudeste 0 -- -- 93
2021-02-05 23:00:00 9.7 4 Sur 36 Sudeste 0.2 -- -- 92
2021-02-05 22:00:00 10.1 17 Sudeste 35 Sudeste 0.8 -- -- 91
2021-02-05 21:00:00 10.1 21 Sudeste 31 Sudeste 0.8 -- -- 93
2021-02-05 20:00:00 10.3 18 Sudeste 31 Sudeste 0.2 -- -- 89
2021-02-05 19:00:00 10.5 14 Sudeste 24 Sudeste 0 -- -- 92
2021-02-05 18:00:00 10.7 13 Sudeste 26 Sudeste 0 -- -- 89
2021-02-05 17:00:00 10.8 17 Sudeste 27 Sudeste 0.6 -- -- 92
2021-02-05 16:00:00 10.7 11 Sudeste 18 Sudeste 1 -- -- 94
2021-02-05 15:00:00 10.5 9 Sudeste 18 Sudeste 0.6 -- -- 93
2021-02-05 14:00:00 10.4 8 Este 14 Sudeste 1 -- -- 94
2021-02-05 13:00:00 9.9 5 Sudeste 23 Sudoeste 2 -- -- 93
2021-02-05 12:00:00 10.1 5 Sudoeste 23 Sudoeste 3 -- -- 91
2021-02-05 11:00:00 10.8 7 Sudoeste 22 Este 0.2 -- -- 90
2021-02-05 10:00:00 9.7 4 Nordeste 12 Sudeste 2 -- -- 100
2021-02-05 09:00:00 9.2 3 Norte 8 Sudoeste 1.2 -- -- 100
2021-02-05 08:00:00 9 2 Oeste 10 Noroeste 0.2 -- -- 100
2021-02-05 07:00:00 9.2 8 Noroeste 10 Norte 0.2 -- -- 100
2021-02-05 06:00:00 9.1 8 Norte 15 Noroeste 0.4 -- -- 100
2021-02-05 05:00:00 9.1 8 Noroeste 10 Noroeste 0.8 -- -- 99
2021-02-05 04:00:00 9.2 3 Noroeste 13 Noroeste 1.4 -- -- 99
2021-02-05 03:00:00 9.2 4 Noroeste 14 Noroeste 0.4 -- -- 99
2021-02-05 02:00:00 9.3 8 Noroeste 12 Noroeste 0.2 -- -- 99
2021-02-05 01:00:00 9.3 8 Noroeste 12 Noroeste 0 -- -- 99
2021-02-05 00:00:00 9 0 Calma 6 Este 0 -- -- 98
2021-02-04 23:00:00 8.9 4 Norte 8 Noroeste 0 -- -- 97
2021-02-04 22:00:00 10 2 Noroeste 7 Oeste 0 -- -- 97
2021-02-04 21:00:00 10 3 Oeste 5 Noroeste 0 -- -- 96
2021-02-04 20:00:00 10 0 Calma 8 Sur 0 -- -- 95
2021-02-04 19:00:00 10.1 5 Sudeste 14 Sudeste 0 -- -- 93
2021-02-04 18:00:00 10.4 0 Calma 11 Norte 0 -- -- 95
2021-02-04 17:00:00 10.1 4 Norte 21 Noroeste 1.8 -- -- 98
2021-02-04 16:00:00 10.1 14 Noroeste 21 Noroeste 1.8 -- -- 97
2021-02-04 15:00:00 10.2 12 Noroeste 17 Noroeste 1.4 -- -- 96
2021-02-04 14:00:00 10.5 5 Norte 18 Oeste 0.6 -- -- 94
2021-02-04 13:00:00 12 9 Sudoeste 41 Sur 0.8 -- -- 90
2021-02-04 12:00:00 12.6 23 Sudeste 36 Sur 0 -- -- 85
2021-02-04 11:00:00 11.8 19 Sudeste 32 Sudeste 0 -- -- 88
2021-02-04 10:00:00 11.5 18 Sudeste 29 Sudeste 0 -- -- 91
2021-02-04 09:00:00 10.9 16 Sudeste 28 Sudeste 0 -- -- 94
2021-02-04 08:00:00 10.6 13 Sudeste 19 Sudeste 0 -- -- 99
2021-02-04 07:00:00 9.9 0 Calma 6 Norte 0.2 -- -- 99
2021-02-04 06:00:00 9.8 4 Norte 6 Norte 0 -- -- 99
2021-02-04 05:00:00 9.7 3 Noroeste 4 Noroeste 0.2 -- -- 98
2021-02-04 04:00:00 9.7 3 Noroeste 9 Noroeste 0 -- -- 98
2021-02-04 03:00:00 10.2 5 Noroeste 9 Noroeste 0.2 -- -- 97
2021-02-04 02:00:00 10.5 2 Noroeste 7 Noroeste 0.2 -- -- 97
2021-02-04 01:00:00 10.6 7 Noroeste 12 Noroeste 0.8 -- -- 96
2021-02-04 00:00:00 11.6 2 Sudeste 10 Sudeste 0.2 -- -- 96
2021-02-03 23:00:00 11.8 6 Sudeste 17 Sudeste 0 -- -- 92
2021-02-03 22:00:00 12.7 13 Sudeste 22 Sudeste 0 -- -- 85
2021-02-03 21:00:00 12.9 13 Sudeste 24 Sudeste 0 -- -- 83
2021-02-03 20:00:00 13.1 15 Sudeste 29 Sudeste 0 -- -- 82
2021-02-03 19:00:00 13.2 14 Sudeste 24 Sudeste 0 -- -- 82
2021-02-03 18:00:00 13.6 15 Sudeste 27 Sudeste 0 -- -- 79
2021-02-03 17:00:00 13.8 18 Sur 30 Sur 0 -- -- 78
2021-02-03 16:00:00 14.2 20 Sur 31 Sur 0 -- -- 76
2021-02-03 15:00:00 14.5 14 Sur 28 Sur 0 -- -- 75
2021-02-03 14:00:00 14.2 13 Sur 25 Sur 0 -- -- 76
2021-02-03 13:00:00 13.7 17 Sur 29 Sudeste 0 -- -- 78
2021-02-03 12:00:00 13 17 Sudeste 28 Sur 0 -- -- 79
2021-02-03 11:00:00 13 18 Sur 29 Sur 0 -- -- 77
2021-02-03 10:00:00 11.8 13 Sur 21 Sudeste 0 -- -- 81
2021-02-03 09:00:00 10.7 13 Sudeste 19 Sur 0 -- -- 83
2021-02-03 08:00:00 10.8 14 Sur 26 Sur 0 -- -- 81
2021-02-03 07:00:00 10.8 18 Sur 31 Sur 0 -- -- 79
2021-02-03 06:00:00 10.7 19 Sur 32 Sur 0 -- -- 79
2021-02-03 05:00:00 10.8 14 Sur 29 Sur 0 -- -- 81
2021-02-03 04:00:00 10.8 9 Sudeste 34 Sur 0 -- -- 82
2021-02-03 03:00:00 11.2 15 Sudoeste 30 Sudoeste 0 -- -- 77
2021-02-03 02:00:00 11.4 5 Sudeste 13 Sudeste 0 -- -- 83
2021-02-03 01:00:00 11.5 5 Noroeste 15 Sudoeste 0 -- -- 82
2021-02-03 00:00:00 11.8 7 Noroeste 15 Oeste 0 -- -- 84
2021-02-02 23:00:00 11.8 2 Sudeste 12 Sudeste 0 -- -- 88
2021-02-02 22:00:00 12.2 5 Sudeste 10 Sudeste 0 -- -- 85
2021-02-02 21:00:00 12.4 4 Sudeste 9 Norte 0 -- -- 84
2021-02-02 20:00:00 12.9 4 Noroeste 12 Noroeste 0 -- -- 82
2021-02-02 19:00:00 13.5 3 Nordeste 22 Sur 0 -- -- 75
2021-02-02 18:00:00 13.8 3 Norte 24 Noroeste 0 -- -- 77
2021-02-02 17:00:00 14.2 6 Sudoeste 21 Oeste 0 -- -- 76
2021-02-02 16:00:00 14.6 12 Oeste 19 Oeste 0 -- -- 75
2021-02-02 15:00:00 14.4 8 Oeste 21 Sur 0 -- -- 77
2021-02-02 14:00:00 14 5 Sur 19 Oeste 0 -- -- 79
2021-02-02 13:00:00 13.4 8 Sudeste 23 Sudeste 0 -- -- 80
2021-02-02 12:00:00 12.5 9 Oeste 19 Oeste 0 -- -- 89
2021-02-02 11:00:00 11.9 5 Oeste 18 Sur 0.4 -- -- 95
2021-02-02 10:00:00 11.5 5 Sudeste 15 Sur 0 -- -- 96
2021-02-02 09:00:00 11.3 10 Sur 19 Sudoeste 0 -- -- 96
2021-02-02 08:00:00 11.3 11 Sudoeste 23 Sudoeste 0 -- -- 95
2021-02-02 07:00:00 11.2 11 Sur 18 Sudeste 0 -- -- 94
2021-02-02 06:00:00 11.4 3 Sudeste 12 Sudeste 0 -- -- 93
2021-02-02 05:00:00 11.6 4 Norte 7 Noroeste 0 -- -- 90
2021-02-02 04:00:00 11.6 0 Calma 9 Sudoeste 0 -- -- 91
2021-02-02 03:00:00 11.7 3 Sudoeste 16 Oeste 0 -- -- 91
2021-02-02 02:00:00 11.7 7 Oeste 21 Oeste 0 -- -- 89
2021-02-02 01:00:00 9.7 4 Sudoeste 14 Sudoeste 0 -- -- 97
2021-02-02 00:00:00 8.8 7 Sudeste 12 Sudeste 0 -- -- 95
2021-02-01 23:00:00 9.4 5 Sudeste 13 Sur 0 -- -- 95
2021-02-01 22:00:00 10.9 3 Oeste 14 Sur 0 -- -- 88
2021-02-01 21:00:00 11.8 8 Sudoeste 19 Sudoeste 0 -- -- 84
2021-02-01 20:00:00 12.3 3 Sudoeste 12 Sudoeste 0 -- -- 80
2021-02-01 19:00:00 12.8 4 Oeste 16 Sudoeste 0 -- -- 76
2021-02-01 18:00:00 13.6 6 Oeste 27 Noroeste 0 -- -- 73
2021-02-01 17:00:00 15.5 10 Oeste 26 Oeste 0 -- -- 70
2021-02-01 16:00:00 15.4 13 Oeste 26 Sudoeste 0 -- -- 70
2021-02-01 15:00:00 15.5 10 Oeste 19 Oeste 0 -- -- 68
2021-02-01 14:00:00 14.3 8 Oeste 21 Sudoeste 0 -- -- 73
2021-02-01 13:00:00 13.2 6 Oeste 20 Noroeste 0 -- -- 77
2021-02-01 12:00:00 12.6 9 Oeste 17 Oeste 0 -- -- 79
2021-02-01 11:00:00 12.2 5 Oeste 19 Oeste 0 -- -- 82
2021-02-01 10:00:00 11.9 8 Noroeste 18 Noroeste 0 -- -- 82
2021-02-01 09:00:00 11.2 6 Noroeste 16 Noroeste 0 -- -- 87
2021-02-01 08:00:00 10.4 6 Noroeste 10 Noroeste 0 -- -- 92
2021-02-01 07:00:00 9.6 5 Noroeste 23 Noroeste 0 -- -- 91
2021-02-01 06:00:00 11.6 11 Noroeste 30 Noroeste 0 -- -- 88
2021-02-01 05:00:00 11.7 9 Noroeste 24 Noroeste 0 -- -- 91
2021-02-01 04:00:00 12 16 Noroeste 33 Noroeste 0 -- -- 87
2021-02-01 03:00:00 13.2 24 Noroeste 37 Noroeste 0 -- -- 85
2021-02-01 02:00:00 13.1 21 Noroeste 33 Oeste 0 -- -- 91
2021-02-01 01:00:00 13.5 21 Noroeste 35 Noroeste 0 -- -- 88
2021-02-01 00:00:00 13.3 17 Noroeste 37 Noroeste 0.2 -- -- 94